Time;durP1;ratioP1;P1;durP2;ratioP2;P2;SDS_P1;SDS_P2;PMS_P1;PMS_P2;Temp;Humidity;BMP_temperature;BMP_pressure;BME280_temperature;BME280_humidity;BME280_pressure;Samples;Min_cycle;Max_cycle;Signal;HPM_P1;HPM_P2
2023/08/09 00:00:47;;;;;;;5.23;1.33;;;;;;;16.29;100.00;101537.53;2506184;23;20163;-69
2023/08/09 00:01:47;;;;;;;2.90;1.50;;;;;;;16.89;100.00;101629.47;2505774;23;20170;-69
2023/08/09 00:02:48;;;;;;;3.83;1.60;;;;;;;16.78;100.00;101617.84;2506172;23;20163;-69
2023/08/09 00:03:49;;;;;;;2.10;1.40;;;;;;;16.82;100.00;101612.13;2506496;23;20159;-69
2023/08/09 00:04:50;;;;;;;3.90;1.30;;;;;;;16.87;100.00;101625.53;2506567;23;20239;-69
2023/08/09 00:05:50;;;;;;;3.50;1.47;;;;;;;16.88;100.00;101627.09;2506426;23;20393;-69
2023/08/09 00:06:51;;;;;;;2.10;1.50;;;;;;;16.91;100.00;101623.41;2506585;23;20153;-69
2023/08/09 00:07:51;;;;;;;2.77;1.50;;;;;;;16.92;100.00;101622.97;2505711;23;20182;-69
2023/08/09 00:08:52;;;;;;;4.10;1.53;;;;;;;16.93;100.00;101621.72;2506542;23;20152;-69
2023/08/09 00:09:52;;;;;;;2.40;1.53;;;;;;;16.96;100.00;101623.59;2506651;23;20158;-69
2023/08/09 00:10:52;;;;;;;3.90;1.53;;;;;;;17.01;100.00;101625.06;2506338;23;20449;-69
2023/08/09 00:11:53;;;;;;;2.07;1.47;;;;;;;16.94;100.00;101620.47;2505863;23;20166;-69
2023/08/09 00:12:53;;;;;;;5.97;1.60;;;;;;;17.00;100.00;101631.91;2505641;23;20183;-69
2023/08/09 00:13:54;;;;;;;5.10;1.60;;;;;;;17.01;100.00;101631.44;2506442;23;20682;-69
2023/08/09 00:14:54;;;;;;;3.93;1.43;;;;;;;16.03;100.00;101471.69;2506359;23;20490;-69
2023/08/09 00:15:54;;;;;;;3.43;1.93;;;;;;;17.00;100.00;101629.09;2506547;23;20184;-69
2023/08/09 00:16:55;;;;;;;2.77;1.40;;;;;;;17.03;100.00;101622.59;2507602;23;20159;-69
2023/08/09 00:17:55;;;;;;;3.60;1.40;;;;;;;16.95;100.00;101612.88;2506328;23;20561;-69
2023/08/09 00:18:56;;;;;;;2.73;1.40;;;;;;;16.98;100.00;101621.16;2506187;23;20191;-69
2023/08/09 00:19:56;;;;;;;2.93;1.57;;;;;;;16.96;100.00;101617.25;2506183;23;20171;-69
2023/08/09 00:20:56;;;;;;;3.53;1.60;;;;;;;16.98;100.00;101623.97;2506380;23;20167;-69
2023/08/09 00:21:57;;;;;;;2.37;1.60;;;;;;;16.98;100.00;101626.75;2506031;23;20160;-69
2023/08/09 00:22:58;;;;;;;3.83;1.60;;;;;;;16.98;100.00;101621.16;2505869;23;20230;-69
2023/08/09 00:23:58;;;;;;;1.93;1.23;;;;;;;17.01;100.00;101616.66;2506453;23;20194;-69
2023/08/09 00:24:59;;;;;;;2.13;1.40;;;;;;;16.95;100.00;101626.88;2506731;23;20383;-69
2023/08/09 00:26:00;;;;;;;3.10;1.50;;;;;;;16.99;100.00;101625.50;2506619;23;20160;-69
2023/08/09 00:27:01;;;;;;;2.07;1.27;;;;;;;17.01;100.00;101628.63;2506580;23;20391;-69
2023/08/09 00:28:02;;;;;;;2.93;1.60;;;;;;;17.05;100.00;101629.31;2506932;23;20286;-69
2023/08/09 00:29:02;;;;;;;4.23;1.57;;;;;;;16.52;100.00;101556.00;2507082;23;20440;-69
2023/08/09 00:30:04;;;;;;;3.23;1.67;;;;;;;17.06;100.00;101630.84;2505926;23;20230;-69
2023/08/09 00:31:05;;;;;;;3.77;1.60;;;;;;;17.07;100.00;101632.41;2505846;23;20249;-69
2023/08/09 00:32:07;;;;;;;4.97;1.80;;;;;;;17.08;100.00;101627.63;2505284;23;20391;-69
2023/08/09 00:33:07;;;;;;;3.70;1.80;;;;;;;17.06;100.00;101627.28;2505601;23;20484;-69
2023/08/09 00:34:07;;;;;;;9.43;1.80;;;;;;;17.06;100.00;101633.66;2505625;23;20425;-69
2023/08/09 00:35:12;;;;;;;4.50;1.70;;;;;;;16.40;100.00;101529.59;2506416;23;20231;-69
2023/08/09 00:36:12;;;;;;;6.30;2.20;;;;;;;17.09;100.00;101631.97;2506044;23;20151;-69
2023/08/09 00:37:13;;;;;;;5.10;1.70;;;;;;;16.92;100.00;101620.16;2506186;23;20415;-69
2023/08/09 00:38:13;;;;;;;4.10;1.47;;;;;;;17.07;100.00;101632.41;2506058;23;20155;-69
2023/08/09 00:39:15;;;;;;;2.87;1.53;;;;;;;16.54;100.00;101554.31;2505487;23;20158;-69
2023/08/09 00:40:15;;;;;;;3.50;1.73;;;;;;;17.08;100.00;101641.63;2506213;23;20508;-69
2023/08/09 00:41:16;;;;;;;5.17;1.87;;;;;;;17.00;100.00;101623.50;2506159;23;20418;-69
2023/08/09 00:42:16;;;;;;;2.30;1.50;;;;;;;17.02;100.00;101640.63;2505639;23;20434;-69
2023/08/09 00:43:17;;;;;;;3.70;1.40;;;;;;;17.02;100.00;101633.03;2506071;23;20570;-69
2023/08/09 00:44:17;;;;;;;3.93;1.50;;;;;;;17.00;100.00;101643.13;2505586;23;20211;-69
2023/08/09 00:45:18;;;;;;;5.20;2.10;;;;;;;16.98;100.00;101640.75;2506277;23;20155;-69
2023/08/09 00:46:18;;;;;;;3.03;1.50;;;;;;;17.00;100.00;101638.28;2505988;23;20189;-69
2023/08/09 00:47:20;;;;;;;6.00;1.60;;;;;;;16.92;100.00;101641.78;2506225;23;20164;-69
2023/08/09 00:48:20;;;;;;;6.80;1.70;;;;;;;16.61;100.00;101598.84;2505764;23;20495;-69
2023/08/09 00:49:21;;;;;;;4.73;1.90;;;;;;;16.35;100.00;101553.28;2506136;23;20426;-69
2023/08/09 00:50:21;;;;;;;3.00;1.77;;;;;;;16.91;100.00;101640.22;2505104;23;20521;-69
2023/08/09 00:51:23;;;;;;;5.33;2.00;;;;;;;16.65;100.00;101600.28;2505540;23;20193;-69
2023/08/09 00:52:25;;;;;;;4.40;1.87;;;;;;;16.26;100.00;101541.22;2505164;23;20166;-69
2023/08/09 00:53:26;;;;;;;3.20;1.93;;;;;;;16.89;100.00;101643.47;2507868;23;20629;-68
2023/08/09 00:54:27;;;;;;;4.87;2.10;;;;;;;16.90;100.00;101638.66;2507800;23;20388;-69
2023/08/09 00:55:28;;;;;;;5.87;2.17;;;;;;;16.90;100.00;101638.66;2508790;23;20155;-69
2023/08/09 00:56:29;;;;;;;9.33;1.93;;;;;;;16.58;100.00;101589.31;2508516;23;20458;-69
2023/08/09 00:57:29;;;;;;;3.93;2.00;;;;;;;16.91;100.00;101643.78;2507730;23;20550;-69
2023/08/09 00:58:30;;;;;;;4.90;1.70;;;;;;;16.89;100.00;101640.66;2506059;23;20163;-69
2023/08/09 00:59:30;;;;;;;4.57;1.80;;;;;;;16.91;100.00;101640.22;2505973;23;20165;-69
2023/08/09 01:00:31;;;;;;;3.30;1.87;;;;;;;16.89;100.00;101660.25;2504724;23;20160;-69
2023/08/09 01:01:31;;;;;;;4.90;2.03;;;;;;;16.91;100.00;101643.00;2506126;23;20163;-69
2023/08/09 01:02:32;;;;;;;4.37;1.60;;;;;;;16.93;100.00;101648.94;2505405;23;20159;-69
2023/08/09 01:03:33;;;;;;;3.53;1.70;;;;;;;16.85;100.00;101630.81;2506003;23;20169;-69
2023/08/09 01:04:33;;;;;;;5.10;1.70;;;;;;;16.95;100.00;101647.25;2506280;23;20207;-69
2023/08/09 01:05:51;;;;;;;2.83;1.70;;;;;;;16.96;100.00;101654.41;2505861;23;20519;-69
2023/08/09 01:07:01;;;;;;;3.83;1.73;;;;;;;16.97;100.00;101655.19;2506141;23;20337;-69
2023/08/09 01:08:10;;;;;;;5.60;1.80;;;;;;;16.26;100.00;101546.81;2505879;23;20921;-69
2023/08/09 01:09:23;;;;;;;3.20;1.80;;;;;;;16.90;100.00;101645.00;2506325;23;20383;-69
2023/08/09 01:10:38;;;;;;;2.30;1.60;;;;;;;16.95;100.00;101650.03;2505424;23;20373;-69
2023/08/09 01:11:44;;;;;;;4.40;1.70;;;;;;;16.95;100.00;101658.44;2506111;23;20372;-69
2023/08/09 01:12:52;;;;;;;3.27;1.87;;;;;;;16.89;100.00;101645.47;2505324;23;20462;-69
2023/08/09 01:13:54;;;;;;;3.43;1.60;;;;;;;16.92;100.00;101650.97;2505718;23;20385;-68
2023/08/09 01:14:59;;;;;;;3.23;1.67;;;;;;;16.92;100.00;101647.38;2505295;23;20388;-69
2023/08/09 01:16:00;;;;;;;3.27;1.73;;;;;;;16.90;100.00;101647.06;2506183;23;20384;-69
2023/08/09 01:17:01;;;;;;;2.87;1.50;;;;;;;16.74;100.00;101633.16;2508781;23;20388;-69
2023/08/09 01:18:03;;;;;;;5.70;1.80;;;;;;;16.84;100.00;101644.03;2508595;23;20427;-69
2023/08/09 01:19:11;;;;;;;5.30;2.00;;;;;;;16.30;100.00;101595.78;2508710;23;20901;-69
2023/08/09 01:20:12;;;;;;;5.47;1.80;;;;;;;16.77;100.00;101646.28;2507671;23;20842;-69
2023/08/09 01:21:14;;;;;;;3.20;2.00;;;;;;;16.76;100.00;101645.47;2505559;23;20376;-69
2023/08/09 01:22:46;;;;;;;3.80;1.60;;;;;;;16.75;100.00;101640.34;2505730;23;20470;-69
2023/08/09 01:23:48;;;;;;;5.70;1.90;;;;;;;16.70;100.00;101633.28;2503654;23;20419;-69
2023/08/09 01:24:49;;;;;;;4.20;1.83;;;;;;;16.68;100.00;101641.38;2506434;23;20396;-69
2023/08/09 01:25:50;;;;;;;7.80;1.80;;;;;;;16.63;100.00;101635.53;2505520;23;20401;-69
2023/08/09 01:26:50;;;;;;;5.10;1.83;;;;;;;16.62;100.00;101642.38;2506340;23;20381;-69
2023/08/09 01:27:51;;;;;;;6.17;2.13;;;;;;;16.60;100.00;101642.81;2507356;23;20168;-69
2023/08/09 01:28:52;;;;;;;6.07;2.03;;;;;;;16.43;100.00;101609.81;2506753;23;20431;-69
2023/08/09 01:29:52;;;;;;;3.67;1.97;;;;;;;16.56;100.00;101635.78;2505969;23;20419;-69
2023/08/09 01:30:53;;;;;;;4.77;2.00;;;;;;;16.58;100.00;101629.75;2505311;23;20163;-69
2023/08/09 01:31:53;;;;;;;2.80;1.73;;;;;;;16.59;100.00;101634.91;2506291;23;20167;-69
2023/08/09 01:32:54;;;;;;;3.93;1.70;;;;;;;16.38;100.00;101602.75;2506219;23;20653;-69
2023/08/09 01:33:54;;;;;;;3.87;1.70;;;;;;;16.57;100.00;101633.78;2505881;23;20247;-69
2023/08/09 01:34:55;;;;;;;5.97;1.70;;;;;;;16.55;100.00;101659.41;2505865;23;20594;-69
2023/08/09 01:36:09;;;;;;;4.07;1.70;;;;;;;16.51;100.00;101636.34;2505233;23;20242;-69
2023/08/09 01:37:27;;;;;;;5.70;1.80;;;;;;;16.51;100.00;101644.75;2505931;23;20447;-69
2023/08/09 01:38:35;;;;;;;7.97;1.97;;;;;;;16.43;100.00;101644.19;2505703;23;20364;-69
2023/08/09 01:39:38;;;;;;;3.13;1.87;;;;;;;16.44;100.00;101642.94;2506569;23;20881;-69
2023/08/09 01:40:39;;;;;;;3.53;1.73;;;;;;;16.44;100.00;101642.19;2505737;23;20462;-69
2023/08/09 01:41:41;;;;;;;4.40;1.90;;;;;;;15.82;100.00;101542.22;2506073;23;20426;-69
2023/08/09 01:42:42;;;;;;;5.10;1.80;;;;;;;16.43;100.00;101648.97;2504797;23;20160;-69
2023/08/09 01:43:43;;;;;;;3.43;2.00;;;;;;;16.42;100.00;101644.63;2506099;23;20467;-69
2023/08/09 01:44:45;;;;;;;4.70;1.70;;;;;;;15.74;100.00;101536.09;2506007;23;20167;-69
2023/08/09 01:45:45;;;;;;;2.50;1.60;;;;;;;16.32;100.00;101640.09;2505844;23;20874;-69
2023/08/09 01:46:46;;;;;;;5.60;2.27;;;;;;;16.39;100.00;101640.69;2505363;23;20689;-69
2023/08/09 01:47:47;;;;;;;3.70;1.83;;;;;;;16.42;100.00;101639.81;2505708;23;20153;-69
2023/08/09 01:48:48;;;;;;;4.70;1.90;;;;;;;16.44;100.00;101633.78;2505896;23;20396;-69
2023/08/09 01:49:51;;;;;;;7.23;2.10;;;;;;;16.45;100.00;101643.75;2505875;23;20159;-69
2023/08/09 01:50:52;;;;;;;6.13;1.77;;;;;;;16.46;100.00;101645.28;2505446;23;20397;-69
2023/08/09 01:51:52;;;;;;;5.77;1.77;;;;;;;16.48;100.00;101643.63;2492669;23;20410;-69
2023/08/09 01:52:55;;;;;;;4.93;2.13;;;;;;;16.48;100.00;101640.81;2492477;23;20160;-69
2023/08/09 01:53:56;;;;;;;4.70;1.67;;;;;;;16.47;100.00;101646.09;2505697;23;20242;-69
2023/08/09 01:54:57;;;;;;;8.07;2.50;;;;;;;16.47;100.00;101643.28;2505877;23;20388;-69
2023/08/09 01:55:57;;;;;;;4.10;1.97;;;;;;;16.09;100.00;101579.69;2505883;23;20195;-69
2023/08/09 01:56:58;;;;;;;3.50;1.53;;;;;;;16.43;100.00;101643.38;2505221;23;20178;-69
2023/08/09 01:57:58;;;;;;;4.43;1.83;;;;;;;16.31;100.00;101614.16;2505912;23;20167;-69
2023/08/09 01:58:59;;;;;;;5.70;1.97;;;;;;;16.47;100.00;101644.06;2505923;23;20194;-69
2023/08/09 01:59:59;;;;;;;3.97;1.50;;;;;;;16.48;100.00;101640.03;2505933;23;20498;-69
2023/08/09 02:01:00;;;;;;;3.30;1.53;;;;;;;16.50;100.00;101637.59;2505626;23;20241;-69
2023/08/09 02:02:01;;;;;;;5.40;1.60;;;;;;;16.49;100.00;101641.63;2506496;23;20338;-69
2023/08/09 02:03:02;;;;;;;2.60;1.73;;;;;;;16.43;100.00;101637.78;2508050;23;20149;-69
2023/08/09 02:04:04;;;;;;;2.53;1.70;;;;;;;16.42;100.00;101636.22;2508209;23;20866;-69
2023/08/09 02:05:05;;;;;;;4.77;1.63;;;;;;;16.43;100.00;101638.59;2508623;23;20165;-69
2023/08/09 02:06:05;;;;;;;2.57;1.70;;;;;;;16.42;100.00;101645.41;2508615;23;20380;-71
2023/08/09 02:07:06;;;;;;;4.57;1.53;;;;;;;16.42;100.00;101635.47;2508447;23;20163;-69
2023/08/09 02:08:07;;;;;;;5.57;1.67;;;;;;;16.35;100.00;101625.25;2508006;23;20151;-69
2023/08/09 02:09:07;;;;;;;3.17;1.30;;;;;;;16.48;100.00;101640.81;2509322;23;20163;-69
2023/08/09 02:10:10;;;;;;;3.77;1.50;;;;;;;16.47;100.00;101646.09;2508970;23;20179;-69
2023/08/09 02:11:10;;;;;;;8.53;1.80;;;;;;;16.49;100.00;101642.38;2509587;23;20617;-69
2023/08/09 02:12:11;;;;;;;3.57;1.80;;;;;;;16.48;100.00;101645.63;2508457;23;20730;-70
2023/08/09 02:13:13;;;;;;;2.77;1.50;;;;;;;16.50;100.00;101652.34;2509280;23;20184;-71
2023/08/09 02:14:13;;;;;;;5.23;1.70;;;;;;;16.50;100.00;101643.19;2508518;23;20151;-71
2023/08/09 02:15:20;;;;;;;5.80;1.60;;;;;;;15.69;100.00;101517.06;2509383;23;20443;-71
2023/08/09 02:16:20;;;;;;;3.23;1.70;;;;;;;16.44;100.00;101642.19;2508290;23;20132;-71
2023/08/09 02:17:21;;;;;;;5.07;1.77;;;;;;;16.41;100.00;101643.06;2509442;23;20378;-71
2023/08/09 02:18:22;;;;;;;9.53;2.20;;;;;;;16.31;100.00;101638.56;2508211;23;20156;-71
2023/08/09 02:19:22;;;;;;;15.30;3.40;;;;;;;16.30;100.00;101634.19;2509601;23;20376;-71
2023/08/09 02:20:23;;;;;;;23.73;4.73;;;;;;;16.29;100.00;101641.03;2508660;23;20171;-71
2023/08/09 02:21:23;;;;;;;9.53;2.43;;;;;;;16.26;100.00;101641.91;2509545;23;20520;-71
2023/08/09 02:22:24;;;;;;;9.73;2.17;;;;;;;16.25;100.00;101638.31;2508616;23;20658;-71
2023/08/09 02:23:25;;;;;;;12.97;2.57;;;;;;;16.28;100.00;101639.44;2509495;23;20155;-71
2023/08/09 02:24:26;;;;;;;9.23;2.23;;;;;;;16.26;100.00;101636.31;2507956;23;20151;-71
2023/08/09 02:25:26;;;;;;;10.70;2.67;;;;;;;16.25;100.00;101638.31;2505710;23;20874;-71
2023/08/09 02:26:27;;;;;;;11.97;2.40;;;;;;;16.21;100.00;101636.88;2508374;23;20166;-71
2023/08/09 02:27:27;;;;;;;7.50;2.17;;;;;;;16.18;100.00;101641.34;2508004;23;20167;-71
2023/08/09 02:28:28;;;;;;;9.57;2.00;;;;;;;15.39;100.00;101514.78;2507210;23;20156;-71
2023/08/09 02:29:28;;;;;;;7.83;2.57;;;;;;;15.92;100.00;101595.00;2507962;23;20175;-71
2023/08/09 02:30:29;;;;;;;6.97;1.83;;;;;;;16.20;100.00;101633.31;2507163;23;20239;-71
2023/08/09 02:31:31;;;;;;;12.93;2.40;;;;;;;16.15;100.00;101625.47;2506722;23;20614;-71
2023/08/09 02:32:32;;;;;;;12.40;2.57;;;;;;;16.17;100.00;101622.19;2507073;23;20622;-71
2023/08/09 02:33:33;;;;;;;12.20;2.37;;;;;;;16.22;100.00;101638.44;2506899;23;20522;-71
2023/08/09 02:34:34;;;;;;;8.37;2.10;;;;;;;16.19;100.00;101644.94;2506155;23;20394;-71
2023/08/09 02:35:58;;;;;;;6.80;2.23;;;;;;;16.17;100.00;101642.56;2506698;23;20598;-71
2023/08/09 02:36:59;;;;;;;11.50;2.50;;;;;;;16.10;100.00;101633.63;2507062;23;20238;-71
2023/08/09 02:38:00;;;;;;;11.40;3.10;;;;;;;16.15;100.00;101649.84;2506850;23;20469;-71
2023/08/09 02:39:00;;;;;;;14.50;3.33;;;;;;;16.13;100.00;101649.50;2506277;23;20380;-71
2023/08/09 02:40:01;;;;;;;15.30;3.40;;;;;;;16.08;100.00;101639.66;2506954;23;20714;-71
2023/08/09 02:41:03;;;;;;;11.50;2.77;;;;;;;16.17;100.00;101645.38;2506944;23;20186;-71
2023/08/09 02:42:04;;;;;;;10.77;2.33;;;;;;;16.19;100.00;101647.72;2506378;23;20397;-71
2023/08/09 02:43:04;;;;;;;9.63;2.10;;;;;;;16.21;100.00;101648.84;2494258;23;20924;-71
2023/08/09 02:44:05;;;;;;;8.23;2.00;;;;;;;16.23;100.00;101645.56;2494340;23;20183;-71
2023/08/09 02:45:06;;;;;;;9.57;2.00;;;;;;;16.24;100.00;101645.13;2506745;23;20595;-71
2023/08/09 02:46:06;;;;;;;7.97;2.30;;;;;;;16.26;100.00;101644.69;2506846;23;20166;-71
2023/08/09 02:47:08;;;;;;;6.63;1.80;;;;;;;16.25;100.00;101645.94;2507011;23;20215;-71
2023/08/09 02:48:08;;;;;;;3.93;1.63;;;;;;;16.26;100.00;101639.09;2506757;23;20155;-71
2023/08/09 02:49:09;;;;;;;3.30;1.83;;;;;;;16.26;100.00;101647.50;2506665;23;20466;-71
2023/08/09 02:50:09;;;;;;;6.33;2.13;;;;;;;16.25;100.00;101655.09;2506844;23;20156;-71
2023/08/09 02:51:10;;;;;;;7.57;1.90;;;;;;;16.04;100.00;101627.00;2506987;23;20175;-71
2023/08/09 02:52:11;;;;;;;7.07;1.90;;;;;;;16.07;100.00;101648.47;2505988;23;20250;-71
2023/08/09 02:53:12;;;;;;;12.47;1.87;;;;;;;15.47;100.00;101552.44;2506714;23;20431;-69
2023/08/09 02:54:13;;;;;;;7.13;1.80;;;;;;;16.08;100.00;101645.25;2506439;23;20609;-69
2023/08/09 02:55:13;;;;;;;10.63;2.77;;;;;;;16.09;100.00;101648.84;2506935;23;20391;-69
2023/08/09 02:56:14;;;;;;;5.00;1.90;;;;;;;16.08;100.00;101650.84;2506022;23;20239;-69
2023/08/09 02:57:15;;;;;;;7.37;2.40;;;;;;;16.08;100.00;101647.28;2506860;23;20652;-69
2023/08/09 02:58:15;;;;;;;5.53;1.93;;;;;;;16.08;100.00;101658.47;2506914;23;20602;-69
2023/08/09 02:59:15;;;;;;;11.77;1.97;;;;;;;16.09;100.00;101657.22;2506873;23;20162;-69
2023/08/09 03:00:16;;;;;;;8.70;2.30;;;;;;;16.11;100.00;101652.75;2505756;23;20163;-69
2023/08/09 03:01:16;;;;;;;8.23;2.03;;;;;;;15.98;100.00;101631.59;2506671;23;20157;-68
2023/08/09 03:02:17;;;;;;;5.27;1.80;;;;;;;16.12;100.00;101653.50;2507202;23;20149;-69
2023/08/09 03:03:17;;;;;;;6.37;2.00;;;;;;;15.97;100.00;101630.81;2509078;23;20148;-69
2023/08/09 03:04:18;;;;;;;6.07;1.70;;;;;;;16.13;100.00;101655.88;2509086;23;20151;-69
2023/08/09 03:05:18;;;;;;;6.43;1.97;;;;;;;16.11;100.00;101658.34;2509194;23;20231;-69
2023/08/09 03:06:22;;;;;;;5.80;2.10;;;;;;;15.67;100.00;101592.16;2508216;23;20151;-69
2023/08/09 03:07:24;;;;;;;10.37;2.40;;;;;;;16.10;100.00;101658.78;2509486;23;20500;-69
2023/08/09 03:08:24;;;;;;;7.67;2.20;;;;;;;16.09;100.00;101660.78;2508917;23;20839;-69
2023/08/09 03:09:25;;;;;;;12.10;2.30;;;;;;;16.06;100.00;101658.91;2509300;23;20395;-69
2023/08/09 03:10:26;;;;;;;12.00;2.30;;;;;;;16.04;100.00;101657.78;2507742;23;20242;-69
2023/08/09 03:11:26;;;;;;;10.40;2.30;;;;;;;16.01;100.00;101653.84;2507104;23;20153;-69
2023/08/09 03:12:27;;;;;;;5.77;1.90;;;;;;;15.98;100.00;101659.56;2505820;23;20392;-69
2023/08/09 03:13:27;;;;;;;8.23;2.27;;;;;;;16.00;100.00;101671.06;2506881;23;20332;-70
2023/08/09 03:14:27;;;;;;;5.53;1.80;;;;;;;15.98;100.00;101663.13;2507942;23;20561;-71
2023/08/09 03:15:28;;;;;;;8.00;1.83;;;;;;;15.96;100.00;101668.38;2493907;23;20169;-71
2023/08/09 03:16:29;;;;;;;4.07;1.60;;;;;;;15.99;100.00;101670.28;2493721;23;20250;-71
2023/08/09 03:17:29;;;;;;;6.73;2.00;;;;;;;16.01;100.00;101672.63;2506503;23;20262;-71
2023/08/09 03:18:29;;;;;;;8.40;2.00;;;;;;;15.75;100.00;101632.66;2506584;23;20160;-71
2023/08/09 03:19:30;;;;;;;4.70;1.90;;;;;;;15.99;100.00;101669.50;2506856;23;20213;-71
2023/08/09 03:20:30;;;;;;;6.47;1.73;;;;;;;16.04;100.00;101672.50;2505770;23;20598;-71
2023/08/09 03:21:31;;;;;;;6.60;2.43;;;;;;;16.09;100.00;101674.00;2506023;23;20515;-71
2023/08/09 03:22:31;;;;;;;5.90;2.27;;;;;;;16.11;100.00;101675.13;2506038;23;20154;-71
2023/08/09 03:23:31;;;;;;;6.57;1.90;;;;;;;16.12;100.00;101676.69;2506797;23;20155;-71
2023/08/09 03:24:32;;;;;;;7.40;2.20;;;;;;;15.51;100.00;101586.66;2506644;23;20268;-71
2023/08/09 03:25:34;;;;;;;4.20;1.90;;;;;;;16.16;100.00;101677.38;2506771;23;20152;-71
2023/08/09 03:26:34;;;;;;;3.63;1.83;;;;;;;16.18;100.00;101683.28;2507917;23;20154;-71
2023/08/09 03:27:35;;;;;;;4.93;2.03;;;;;;;16.21;100.00;101688.00;2505776;23;20403;-71
2023/08/09 03:28:36;;;;;;;5.50;1.97;;;;;;;16.23;100.00;101681.94;2507306;23;20652;-71
2023/08/09 03:29:37;;;;;;;5.97;1.80;;;;;;;16.25;100.00;101677.47;2496477;23;20510;-71
2023/08/09 03:30:38;;;;;;;7.87;1.87;;;;;;;16.17;100.00;101675.34;2493866;23;20195;-70
2023/08/09 03:31:38;;;;;;;6.97;1.90;;;;;;;16.28;100.00;101684.97;2505676;23;20710;-71
2023/08/09 03:32:38;;;;;;;5.40;2.03;;;;;;;15.61;100.00;101582.78;2505573;23;20160;-71
2023/08/09 03:33:39;;;;;;;3.63;1.70;;;;;;;16.24;100.00;101686.31;2506562;23;20295;-71
2023/08/09 03:34:39;;;;;;;4.37;1.60;;;;;;;16.15;100.00;101673.00;2506200;23;20166;-71
2023/08/09 03:35:40;;;;;;;4.77;1.67;;;;;;;16.28;100.00;101695.38;2506309;23;20538;-71
2023/08/09 03:36:40;;;;;;;3.83;1.90;;;;;;;16.28;100.00;101693.38;2506274;23;20198;-71
2023/08/09 03:37:41;;;;;;;7.83;2.20;;;;;;;16.23;100.00;101679.94;2505578;23;20654;-71
2023/08/09 03:38:41;;;;;;;15.70;3.60;;;;;;;16.32;100.00;101693.25;2507227;23;20155;-71
2023/08/09 03:39:41;;;;;;;11.33;2.90;;;;;;;16.34;100.00;101690.81;2506520;23;20320;-71
2023/08/09 03:40:42;;;;;;;9.10;2.20;;;;;;;16.37;100.00;101687.09;2506007;23;20155;-71
2023/08/09 03:41:42;;;;;;;6.50;2.20;;;;;;;16.05;100.00;101625.78;2505656;23;20157;-68
2023/08/09 03:42:43;;;;;;;10.07;2.50;;;;;;;16.39;100.00;101687.50;2505619;23;20193;-69
2023/08/09 03:43:43;;;;;;;14.20;3.20;;;;;;;16.42;100.00;101697.78;2506293;23;20167;-69
2023/08/09 03:44:44;;;;;;;8.97;2.20;;;;;;;16.42;100.00;101692.19;2506364;23;20156;-69
2023/08/09 03:45:44;;;;;;;11.60;2.93;;;;;;;16.42;100.00;101694.97;2506309;23;20187;-69
2023/08/09 03:46:45;;;;;;;6.37;2.20;;;;;;;16.42;100.00;101694.22;2506353;23;20593;-69
2023/08/09 03:47:45;;;;;;;8.87;2.23;;;;;;;16.43;100.00;101700.13;2506245;23;20599;-69
2023/08/09 03:48:45;;;;;;;7.07;2.30;;;;;;;15.42;100.00;101546.63;2505703;23;20159;-69
2023/08/09 03:49:46;;;;;;;3.17;1.53;;;;;;;16.42;100.00;101697.00;2506204;23;20185;-69
2023/08/09 03:50:46;;;;;;;5.50;2.10;;;;;;;16.16;100.00;101671.78;2505801;23;20163;-69
2023/08/09 03:51:47;;;;;;;7.40;1.53;;;;;;;16.34;100.00;101693.63;2506120;23;20160;-69
2023/08/09 03:52:47;;;;;;;4.40;1.90;;;;;;;16.33;100.00;101692.81;2505077;23;20181;-69
2023/08/09 03:53:47;;;;;;;6.80;2.17;;;;;;;16.26;100.00;101679.06;2506120;23;20306;-69
2023/08/09 03:54:52;;;;;;;2.53;1.50;;;;;;;16.35;100.00;101686.78;2506331;23;20596;-69
2023/08/09 03:55:52;;;;;;;2.87;1.53;;;;;;;16.37;100.00;101689.91;2506173;23;20541;-69
2023/08/09 03:56:52;;;;;;;5.20;1.50;;;;;;;16.36;100.00;101689.16;2506134;23;20461;-69
2023/08/09 03:57:53;;;;;;;3.23;1.50;;;;;;;16.31;100.00;101686.09;2506464;23;20613;-69
2023/08/09 03:58:53;;;;;;;7.77;1.80;;;;;;;16.40;100.00;101701.00;2508384;23;20612;-69
2023/08/09 03:59:54;;;;;;;4.17;1.57;;;;;;;15.64;100.00;101576.31;2508821;23;20216;-69
2023/08/09 04:00:55;;;;;;;3.80;1.70;;;;;;;16.43;100.00;101694.53;2508586;23;20600;-69
2023/08/09 04:01:56;;;;;;;4.87;1.33;;;;;;;16.43;100.00;101696.53;2506726;23;20471;-69
2023/08/09 04:02:56;;;;;;;6.20;2.23;;;;;;;16.31;100.00;101680.50;2505566;23;20871;-69
2023/08/09 04:03:57;;;;;;;14.30;3.63;;;;;;;16.35;100.00;101690.34;2506065;23;20720;-69
2023/08/09 04:04:57;;;;;;;12.23;3.13;;;;;;;16.37;100.00;101692.72;2506298;23;20489;-69
2023/08/09 04:05:58;;;;;;;13.23;3.17;;;;;;;15.94;100.00;101634.47;2506348;23;20493;-69
2023/08/09 04:06:58;;;;;;;11.70;2.83;;;;;;;16.33;100.00;101698.41;2506294;23;20164;-69
2023/08/09 04:08:01;;;;;;;11.93;2.70;;;;;;;15.67;100.00;101608.94;2506280;23;20152;-69
2023/08/09 04:09:02;;;;;;;15.50;2.77;;;;;;;15.53;100.00;101577.84;2493088;23;20256;-69
2023/08/09 04:10:05;;;;;;;9.63;2.50;;;;;;;16.34;100.00;101708.38;2493069;23;21048;-69
2023/08/09 04:11:05;;;;;;;10.43;2.23;;;;;;;16.33;100.00;101704.00;2506104;23;20244;-69
2023/08/09 04:12:06;;;;;;;7.03;2.20;;;;;;;16.32;100.00;101705.25;2505577;23;20452;-69
2023/08/09 04:13:07;;;;;;;3.53;1.73;;;;;;;16.36;100.00;101705.13;2505815;23;20237;-69
2023/08/09 04:14:08;;;;;;;6.67;1.80;;;;;;;15.38;100.00;101546.72;2505760;23;20610;-69
2023/08/09 04:15:08;;;;;;;3.80;1.80;;;;;;;16.40;100.00;101703.81;2506181;23;20608;-71
2023/08/09 04:16:09;;;;;;;8.60;2.20;;;;;;;16.43;100.00;101704.94;2506134;23;20245;-71
2023/08/09 04:17:10;;;;;;;4.93;1.50;;;;;;;16.44;100.00;101703.72;2506237;23;20231;-71
2023/08/09 04:18:10;;;;;;;6.00;1.90;;;;;;;16.45;100.00;101711.66;2505855;23;20156;-71
2023/08/09 04:19:11;;;;;;;4.40;1.80;;;;;;;16.45;100.00;101703.25;2506267;23;20155;-71
2023/08/09 04:20:12;;;;;;;6.97;2.13;;;;;;;16.10;100.00;101651.19;2505329;23;20661;-71
2023/08/09 04:21:12;;;;;;;6.57;2.30;;;;;;;16.36;100.00;101691.94;2506563;23;20179;-71
2023/08/09 04:22:12;;;;;;;7.27;1.90;;;;;;;16.42;100.00;101706.97;2505360;23;20151;-71
2023/08/09 04:23:13;;;;;;;6.87;1.90;;;;;;;16.42;100.00;101706.97;2506377;23;20469;-71
2023/08/09 04:24:14;;;;;;;9.63;1.87;;;;;;;16.40;100.00;101709.41;2492620;23;20227;-71
2023/08/09 04:25:15;;;;;;;2.97;1.80;;;;;;;16.43;100.00;101710.53;2495340;23;20714;-71
2023/08/09 04:26:15;;;;;;;8.23;2.60;;;;;;;16.39;100.00;101702.25;2507807;23;20874;-71
2023/08/09 04:27:16;;;;;;;5.80;2.10;;;;;;;16.45;100.00;101725.66;2507315;23;20672;-71
2023/08/09 04:28:16;;;;;;;7.10;2.03;;;;;;;16.35;100.00;101698.75;2507491;23;20546;-71
2023/08/09 04:29:17;;;;;;;9.77;2.30;;;;;;;16.45;100.00;101722.06;2508909;23;20484;-71
2023/08/09 04:30:17;;;;;;;5.83;1.90;;;;;;;16.35;100.00;101701.53;2507644;23;20435;-71
2023/08/09 04:31:18;;;;;;;7.50;2.30;;;;;;;16.46;100.00;101718.03;2508785;23;20487;-71
2023/08/09 04:32:18;;;;;;;9.10;2.10;;;;;;;16.43;100.00;101716.13;2506172;23;20513;-71
2023/08/09 04:33:18;;;;;;;7.93;2.10;;;;;;;16.50;100.00;101721.53;2505996;23;20190;-71
2023/08/09 04:34:19;;;;;;;5.97;2.20;;;;;;;15.75;100.00;101618.69;2505511;23;20158;-71
2023/08/09 04:35:20;;;;;;;8.60;2.73;;;;;;;16.52;100.00;101725.44;2506168;23;20155;-71
2023/08/09 04:36:20;;;;;;;7.00;2.30;;;;;;;16.55;100.00;101727.34;2505918;23;20274;-71
2023/08/09 04:37:22;;;;;;;5.77;2.03;;;;;;;16.57;100.00;101723.31;2493233;23;20531;-71
2023/08/09 04:38:23;;;;;;;11.10;2.60;;;;;;;16.40;100.00;101701.00;2494425;23;20344;-71
2023/08/09 04:39:23;;;;;;;13.30;2.73;;;;;;;15.73;100.00;101593.19;2506243;23;21287;-71
2023/08/09 04:40:25;;;;;;;12.10;3.23;;;;;;;16.60;100.00;101723.97;2505348;23;20151;-71
2023/08/09 04:41:25;;;;;;;6.70;2.23;;;;;;;16.63;100.00;101732.72;2505833;23;20231;-71
2023/08/09 04:42:27;;;;;;;11.20;2.43;;;;;;;16.61;100.00;101721.97;2505398;23;20380;-71